createdAt,value
2024-01-20T00:02:06.495Z,3.61
2024-01-20T00:04:35.759Z,3.60
2024-01-20T00:07:11.137Z,3.52
2024-01-20T00:09:50.112Z,3.45
2024-01-20T00:12:24.624Z,3.40
2024-01-20T00:14:55.193Z,3.38
2024-01-20T00:17:26.876Z,3.40
2024-01-20T00:19:57.182Z,3.47
2024-01-20T00:22:25.762Z,3.42
2024-01-20T00:24:54.214Z,3.43
2024-01-20T00:27:24.474Z,3.50
2024-01-20T00:29:52.868Z,3.40
2024-01-20T00:32:21.341Z,3.35
2024-01-20T00:34:59.773Z,3.30
2024-01-20T00:37:36.806Z,3.27
2024-01-20T00:40:06.628Z,3.26
2024-01-20T00:42:37.701Z,3.25
2024-01-20T00:45:07.054Z,3.22
2024-01-20T00:47:38.623Z,3.22
2024-01-20T00:50:12.984Z,3.16
2024-01-20T00:52:43.167Z,3.13
2024-01-20T00:55:13.156Z,3.12
2024-01-20T00:57:47.610Z,2.94
2024-01-20T01:00:20.152Z,2.85
2024-01-20T01:02:58.688Z,2.79
2024-01-20T01:05:29.604Z,2.78
2024-01-20T01:07:59.214Z,2.80
2024-01-20T01:10:30.933Z,2.73
2024-01-20T01:13:05.043Z,2.72
2024-01-20T01:15:34.705Z,2.65
2024-01-20T01:18:07.736Z,2.64
2024-01-20T01:20:37.055Z,2.61
2024-01-20T01:23:13.579Z,2.59
2024-01-20T01:25:44.946Z,2.57
2024-01-20T01:28:26.738Z,2.54
2024-01-20T01:30:55.143Z,2.50
2024-01-20T01:33:27.610Z,2.45
2024-01-20T01:38:49.404Z,2.41
2024-01-20T01:41:19.048Z,2.40
2024-01-20T01:43:48.991Z,2.40
2024-01-20T01:46:24.652Z,2.35
2024-01-20T01:48:53.188Z,2.33
2024-01-20T01:51:22.692Z,2.32
2024-01-20T01:53:57.469Z,2.18
2024-01-20T01:56:32.936Z,2.06
2024-01-20T01:59:04.591Z,2.01
2024-01-20T02:01:33.075Z,1.94
2024-01-20T02:04:09.333Z,1.84
2024-01-20T02:06:37.851Z,1.80
2024-01-20T02:09:12.090Z,1.76
2024-01-20T02:11:48.551Z,1.74
2024-01-20T02:14:21.290Z,1.74
2024-01-20T02:16:59.889Z,1.67
2024-01-20T02:19:28.461Z,1.64
2024-01-20T02:21:56.898Z,1.49
2024-01-20T02:24:30.561Z,1.44
2024-01-20T02:27:00.674Z,1.41
2024-01-20T02:29:30.671Z,1.41
2024-01-20T02:32:00.620Z,1.39
2024-01-20T02:34:29.142Z,1.40
2024-01-20T02:36:57.953Z,1.35
2024-01-20T02:39:27.916Z,1.40
2024-01-20T02:41:56.226Z,1.37
2024-01-20T02:44:24.965Z,1.33
2024-01-20T02:46:54.472Z,1.30
2024-01-20T02:49:23.654Z,1.27
2024-01-20T02:51:55.557Z,1.32
2024-01-20T02:54:24.945Z,1.38
2024-01-20T02:56:56.445Z,1.31
2024-01-20T02:59:24.955Z,1.37
2024-01-20T03:01:55.177Z,1.43
2024-01-20T03:04:24.912Z,1.42
2024-01-20T03:06:54.688Z,1.42
2024-01-20T03:09:26.616Z,1.39
2024-01-20T03:11:56.512Z,1.46
2024-01-20T03:14:24.881Z,1.42
2024-01-20T03:16:56.811Z,1.36
2024-01-20T03:19:29.697Z,1.29
2024-01-20T03:21:58.683Z,1.31
2024-01-20T03:24:27.064Z,1.16
2024-01-20T03:26:59.829Z,1.06
2024-01-20T03:29:28.435Z,0.95
2024-01-20T03:31:56.864Z,0.80
2024-01-20T03:34:25.303Z,0.69
2024-01-20T03:36:53.900Z,0.67
2024-01-20T03:39:23.307Z,0.66
2024-01-20T03:41:59.251Z,0.63
2024-01-20T03:44:27.589Z,0.62
2024-01-20T03:46:55.953Z,0.66
2024-01-20T03:49:25.571Z,0.64
2024-01-20T03:51:54.006Z,0.62
2024-01-20T03:54:22.495Z,0.62
2024-01-20T03:56:51.947Z,0.59
2024-01-20T03:59:22.127Z,0.58
2024-01-20T04:01:52.633Z,0.55
2024-01-20T04:04:21.116Z,0.57
2024-01-20T04:06:51.633Z,0.57
2024-01-20T04:09:21.160Z,0.56
2024-01-20T04:11:49.795Z,0.54
2024-01-20T04:14:24.820Z,0.57
2024-01-20T04:16:55.344Z,0.59
2024-01-20T04:19:25.257Z,0.61
2024-01-20T04:21:55.615Z,0.62
2024-01-20T04:24:24.952Z,0.64
2024-01-20T04:26:53.315Z,0.60
2024-01-20T04:29:21.659Z,0.60
2024-01-20T04:31:52.912Z,0.59
2024-01-20T04:34:23.948Z,0.60
2024-01-20T04:36:52.702Z,0.60
2024-01-20T04:39:21.269Z,0.59
2024-01-20T04:41:49.672Z,0.53
2024-01-20T04:44:18.009Z,0.56
2024-01-20T04:46:47.077Z,0.62
2024-01-20T04:49:18.987Z,0.63
2024-01-20T04:51:55.611Z,0.76
2024-01-20T04:54:25.953Z,0.81
2024-01-20T04:56:54.408Z,0.71
2024-01-20T04:59:23.285Z,0.72
2024-01-20T05:01:56.006Z,0.55
2024-01-20T05:04:31.306Z,0.63
2024-01-20T05:07:03.712Z,0.60
2024-01-20T05:09:32.378Z,0.66
2024-01-20T05:12:03.714Z,0.58
2024-01-20T05:14:32.320Z,0.50
2024-01-20T05:17:00.783Z,0.49
2024-01-20T05:19:29.273Z,0.52
2024-01-20T05:21:58.824Z,0.49
2024-01-20T05:24:28.862Z,0.49
2024-01-20T05:26:57.356Z,0.45
2024-01-20T05:29:25.720Z,0.46
2024-01-20T05:31:55.145Z,0.42
2024-01-20T05:34:28.136Z,0.43
2024-01-20T05:36:56.768Z,0.39
2024-01-20T05:39:25.110Z,0.45
2024-01-20T05:41:54.911Z,0.50
2024-01-20T05:44:28.007Z,0.48
2024-01-20T05:46:56.351Z,0.48
2024-01-20T05:49:27.503Z,0.49
2024-01-20T05:51:56.732Z,0.46
2024-01-20T05:54:25.129Z,0.44
2024-01-20T05:56:55.072Z,0.43
2024-01-20T05:59:23.393Z,0.41
2024-01-20T06:01:52.628Z,0.36
2024-01-20T06:04:21.121Z,0.32
2024-01-20T06:06:50.234Z,0.31
2024-01-20T06:09:18.640Z,0.32
2024-01-20T06:11:47.020Z,0.21
2024-01-20T06:14:17.062Z,0.29
2024-01-20T06:16:45.413Z,0.25
2024-01-20T06:19:14.508Z,0.21
2024-01-20T06:21:43.662Z,0.14
2024-01-20T06:24:13.242Z,0.20
2024-01-20T06:26:41.564Z,0.24
2024-01-20T06:29:09.903Z,0.23
2024-01-20T06:31:39.826Z,0.30
2024-01-20T06:34:08.351Z,0.33
2024-01-20T06:36:36.764Z,0.35
2024-01-20T06:39:06.146Z,0.32
2024-01-20T06:41:34.583Z,0.38
2024-01-20T06:44:02.918Z,0.36
2024-01-20T06:46:31.365Z,0.37
2024-01-20T06:49:01.366Z,0.42
2024-01-20T06:51:29.851Z,0.35
2024-01-20T06:54:00.860Z,0.39
2024-01-20T06:56:29.628Z,0.43
2024-01-20T06:58:58.275Z,0.47
2024-01-20T07:01:26.713Z,0.44
2024-01-20T07:03:55.727Z,0.38
2024-01-20T07:06:29.490Z,0.38
2024-01-20T07:08:58.039Z,0.39
2024-01-20T07:11:27.333Z,0.42
2024-01-20T07:13:55.759Z,0.36
2024-01-20T07:16:27.131Z,0.39
2024-01-20T07:19:29.170Z,0.40
2024-01-20T07:21:58.935Z,0.38
2024-01-20T07:24:29.095Z,0.36
2024-01-20T07:26:57.537Z,0.32
2024-01-20T07:29:26.757Z,0.33
2024-01-20T07:31:55.358Z,0.29
2024-01-20T07:34:23.920Z,0.24
2024-01-20T07:36:52.462Z,0.15
2024-01-20T07:39:22.298Z,0.09
2024-01-20T07:41:50.796Z,0.08
2024-01-20T07:44:19.120Z,0.10
2024-01-20T07:46:47.468Z,0.05
2024-01-20T07:49:15.878Z,-0.02
2024-01-20T07:51:44.238Z,-0.12
2024-01-20T07:54:13.632Z,-0.08
2024-01-20T07:56:43.536Z,-0.07
2024-01-20T07:59:11.820Z,-0.08
2024-01-20T08:01:40.298Z,-0.14
2024-01-20T08:04:09.157Z,-0.21
2024-01-20T08:06:38.574Z,-0.22
2024-01-20T08:09:07.916Z,-0.21
2024-01-20T08:11:36.326Z,-0.23
2024-01-20T08:14:07.008Z,-0.21
2024-01-20T08:16:35.347Z,-0.26
2024-01-20T08:19:03.948Z,-0.22
2024-01-20T08:21:32.475Z,-0.19
2024-01-20T08:24:02.085Z,-0.19
2024-01-20T08:26:33.511Z,-0.22
2024-01-20T08:29:03.134Z,-0.22
2024-01-20T08:31:33.084Z,-0.22
2024-01-20T08:34:01.746Z,-0.11
2024-01-20T08:36:30.421Z,-0.09
2024-01-20T08:38:59.335Z,-0.11
2024-01-20T08:41:28.063Z,-0.10
2024-01-20T08:43:56.562Z,-0.08
2024-01-20T08:46:26.592Z,-0.02
2024-01-20T08:48:56.535Z,-0.01
2024-01-20T08:51:24.871Z,-0.02
2024-01-20T08:53:53.510Z,-0.09
2024-01-20T08:56:21.977Z,-0.03
2024-01-20T08:58:50.730Z,-0.08
2024-01-20T09:01:19.155Z,-0.07
2024-01-20T09:03:49.624Z,-0.17
2024-01-20T09:06:19.549Z,-0.22
2024-01-20T09:08:47.932Z,-0.19
2024-01-20T09:11:16.645Z,-0.20
2024-01-20T09:13:47.395Z,-0.29
2024-01-20T09:16:16.083Z,-0.22
2024-01-20T09:18:44.929Z,-0.39
2024-01-20T09:21:14.776Z,-0.32
2024-01-20T09:23:44.849Z,-0.35
2024-01-20T09:26:13.380Z,-0.31
2024-01-20T09:28:42.205Z,-0.29
2024-01-20T09:31:10.559Z,-0.26
2024-01-20T09:33:39.132Z,-0.27
2024-01-20T09:36:08.771Z,-0.17
2024-01-20T09:38:37.595Z,-0.05
2024-01-20T09:41:11.193Z,-0.08
2024-01-20T09:43:41.608Z,-0.09
2024-01-20T09:46:11.681Z,0.01
2024-01-20T09:48:45.556Z,-0.04
2024-01-20T09:51:14.531Z,0.01
2024-01-20T09:53:53.683Z,-0.10
2024-01-20T09:56:30.127Z,-0.15
2024-01-20T09:59:01.490Z,-0.11
2024-01-20T10:01:30.323Z,-0.10
2024-01-20T10:04:03.070Z,-0.04
2024-01-20T10:06:31.621Z,0.03
2024-01-20T10:09:00.181Z,0.04
2024-01-20T10:11:31.269Z,0.08
2024-01-20T10:13:59.598Z,0.01
2024-01-20T10:16:27.953Z,-0.04
2024-01-20T10:18:56.559Z,-0.01
2024-01-20T10:21:26.160Z,-0.01
2024-01-20T10:23:54.806Z,-0.06
2024-01-20T10:26:24.642Z,-0.07
2024-01-20T10:28:56.087Z,-0.11
2024-01-20T10:34:22.741Z,-0.12
2024-01-20T10:37:07.174Z,-0.21
2024-01-20T10:39:42.713Z,-0.32
2024-01-20T10:42:13.844Z,-0.42
2024-01-20T10:45:54.338Z,-0.33
2024-01-20T10:48:28.612Z,-0.41
2024-01-20T10:51:27.340Z,-0.48
2024-01-20T10:53:57.503Z,-0.33
2024-01-20T10:56:33.367Z,-0.36
2024-01-20T10:59:17.174Z,-0.38
2024-01-20T11:01:57.172Z,-0.33
2024-01-20T11:04:25.749Z,-0.25
2024-01-20T11:06:55.085Z,-0.26
2024-01-20T11:09:24.254Z,-0.36
2024-01-20T11:12:03.149Z,-0.37
2024-01-20T11:14:31.924Z,-0.40
2024-01-20T11:17:11.413Z,-0.44
2024-01-20T11:19:39.867Z,-0.37
2024-01-20T11:28:44.196Z,-0.44
2024-01-20T11:31:36.177Z,-0.50
2024-01-20T11:34:54.380Z,-0.60
2024-01-20T11:37:26.315Z,-0.51
2024-01-20T11:40:06.469Z,-0.56
2024-01-20T11:42:35.008Z,-0.59
2024-01-20T11:45:03.824Z,-0.60
2024-01-20T11:47:33.319Z,-0.59
2024-01-20T11:50:04.387Z,-0.65
2024-01-20T11:52:34.299Z,-0.69
2024-01-20T11:55:03.116Z,-0.72
2024-01-20T11:57:32.440Z,-0.74
2024-01-20T12:00:01.292Z,-0.70
2024-01-20T12:02:31.285Z,-0.73
2024-01-20T12:05:04.505Z,-0.75
2024-01-20T12:07:38.302Z,-0.78
2024-01-20T12:10:07.158Z,-0.79
2024-01-20T12:12:35.660Z,-0.78
2024-01-20T12:15:08.264Z,-0.80
2024-01-20T12:17:37.742Z,-0.73
2024-01-20T12:20:07.126Z,-0.76
2024-01-20T12:22:35.520Z,-0.75
2024-01-20T12:25:06.007Z,-0.79
2024-01-20T12:27:34.784Z,-0.77
2024-01-20T12:30:05.026Z,-0.76
2024-01-20T12:32:33.563Z,-0.77
2024-01-20T12:35:02.071Z,-0.79
2024-01-20T12:37:30.561Z,-0.75
2024-01-20T12:39:59.071Z,-0.68
2024-01-20T12:42:28.912Z,-0.67
2024-01-20T12:44:57.472Z,-0.70
2024-01-20T12:47:26.046Z,-0.74
2024-01-20T12:49:54.649Z,-0.80
2024-01-20T12:52:23.761Z,-0.81
2024-01-20T12:54:52.187Z,-0.87
2024-01-20T12:57:20.663Z,-0.88
2024-01-20T12:59:50.437Z,-0.87
2024-01-20T13:02:18.867Z,-0.85
2024-01-20T13:04:47.360Z,-0.84
2024-01-20T13:07:15.806Z,-0.82
2024-01-20T13:09:44.289Z,-0.81
2024-01-20T13:12:12.693Z,-0.79
2024-01-20T13:14:42.734Z,-0.77
2024-01-20T13:17:14.843Z,-0.80
2024-01-20T13:19:43.768Z,-0.87
2024-01-20T13:22:13.686Z,-0.84
2024-01-20T13:24:43.270Z,-0.85
2024-01-20T13:27:14.031Z,-0.87
2024-01-20T13:29:42.536Z,-0.82
2024-01-20T13:32:13.268Z,-0.84
2024-01-20T13:34:41.745Z,-0.80
2024-01-20T13:37:10.258Z,-0.83
2024-01-20T13:39:38.691Z,-0.82
2024-01-20T13:42:07.832Z,-0.83
2024-01-20T13:44:36.218Z,-0.87
2024-01-20T13:47:07.662Z,-0.91
2024-01-20T13:49:37.877Z,-0.92
2024-01-20T13:52:06.879Z,-0.96
2024-01-20T13:54:35.303Z,-1.00
2024-01-20T13:57:04.231Z,-1.11
2024-01-20T13:59:33.697Z,-1.14
2024-01-20T14:02:02.080Z,-1.11
2024-01-20T14:04:30.581Z,-1.15
2024-01-20T14:07:06.034Z,-1.18
2024-01-20T14:09:35.287Z,-1.21
2024-01-20T14:12:03.822Z,-1.26
2024-01-20T14:14:32.427Z,-1.29
2024-01-20T14:17:01.736Z,-1.27
2024-01-20T14:19:30.348Z,-1.28
2024-01-20T14:22:00.367Z,-1.29
2024-01-20T14:24:29.119Z,-1.28
2024-01-20T14:26:57.740Z,-1.27
2024-01-20T14:29:26.277Z,-1.27
2024-01-20T14:31:54.631Z,-1.22
2024-01-20T14:34:24.313Z,-1.22
2024-01-20T14:36:53.676Z,-1.18
2024-01-20T14:39:23.984Z,-1.18
2024-01-20T14:41:52.520Z,-1.17
2024-01-20T14:44:20.973Z,-1.14
2024-01-20T14:46:51.005Z,-1.09
2024-01-20T14:49:19.590Z,-1.08
2024-01-20T14:51:48.100Z,-1.07
2024-01-20T14:54:16.680Z,-1.02
2024-01-20T14:56:46.514Z,-0.99
2024-01-20T14:59:17.067Z,-0.92
2024-01-20T15:01:48.873Z,-0.92
2024-01-20T15:04:17.679Z,-0.95
2024-01-20T15:06:46.170Z,-0.87
2024-01-20T15:09:14.847Z,-0.91
2024-01-20T15:11:43.995Z,-0.84
2024-01-20T15:14:14.362Z,-0.76
2024-01-20T15:16:43.157Z,-0.77
2024-01-20T15:19:12.036Z,-0.77
2024-01-20T15:21:40.663Z,-0.79
2024-01-20T15:24:09.199Z,-0.79
2024-01-20T15:26:38.286Z,-0.79
2024-01-20T15:29:10.893Z,-0.72
2024-01-20T15:31:42.779Z,-0.65
2024-01-20T15:34:11.424Z,-0.66
2024-01-20T15:36:43.149Z,-0.57
2024-01-20T15:39:11.637Z,-0.56
2024-01-20T15:41:40.254Z,-0.54
2024-01-20T15:44:10.856Z,-0.51
2024-01-20T15:46:39.995Z,-0.51
2024-01-20T15:49:09.879Z,-0.49
2024-01-20T15:51:39.616Z,-0.48
2024-01-20T15:54:08.172Z,-0.49
2024-01-20T15:56:42.639Z,-0.54
2024-01-20T15:59:11.125Z,-0.50
2024-01-20T16:01:39.612Z,-0.61
2024-01-20T16:04:09.757Z,-0.64
2024-01-20T16:06:40.240Z,-0.69
2024-01-20T16:09:08.963Z,-0.76
2024-01-20T16:11:37.688Z,-0.70
2024-01-20T16:14:07.403Z,-0.79
2024-01-20T16:16:35.729Z,-0.82
2024-01-20T16:19:04.275Z,-0.84
2024-01-20T16:21:34.342Z,-0.87
2024-01-20T16:24:03.067Z,-0.81
2024-01-20T16:26:32.772Z,-0.87
2024-01-20T16:29:01.193Z,-0.87
2024-01-20T16:31:30.836Z,-0.95
2024-01-20T16:33:59.386Z,-0.95
2024-01-20T16:36:28.933Z,-0.91
2024-01-20T16:38:58.731Z,-0.91
2024-01-20T16:41:27.213Z,-0.88
2024-01-20T16:43:55.580Z,-0.84
2024-01-20T16:46:24.117Z,-0.86
2024-01-20T16:48:52.720Z,-0.84
2024-01-20T16:51:26.880Z,-0.86
2024-01-20T16:53:56.133Z,-0.80
2024-01-20T16:56:25.954Z,-0.82
2024-01-20T16:58:54.345Z,-0.83
2024-01-20T17:01:23.979Z,-0.85
2024-01-20T17:03:52.540Z,-0.87
2024-01-20T17:06:21.380Z,-0.87
2024-01-20T17:08:49.903Z,-0.89
2024-01-20T17:11:18.260Z,-0.84
2024-01-20T17:13:50.215Z,-0.83
2024-01-20T17:16:19.818Z,-0.88
2024-01-20T17:18:48.837Z,-0.85
2024-01-20T17:21:18.051Z,-0.80
2024-01-20T17:23:46.729Z,-0.77
2024-01-20T17:26:15.168Z,-0.80
2024-01-20T17:28:43.797Z,-0.86
2024-01-20T17:31:13.557Z,-0.85
2024-01-20T17:33:43.043Z,-0.85
2024-01-20T17:36:11.558Z,-0.88
2024-01-20T17:38:40.472Z,-0.90
2024-01-20T17:41:08.938Z,-0.93
2024-01-20T17:43:37.753Z,-0.97
2024-01-20T17:46:06.601Z,-0.96
2024-01-20T17:48:37.348Z,-0.95
2024-01-20T17:51:06.263Z,-0.95
2024-01-20T17:53:36.095Z,-0.95
2024-01-20T17:56:05.631Z,-0.93
2024-01-20T17:58:35.476Z,-0.94
2024-01-20T18:01:04.316Z,-0.93
2024-01-20T18:03:34.262Z,-0.95
2024-01-20T18:06:04.439Z,-0.97
2024-01-20T18:08:32.920Z,-0.97
2024-01-20T18:11:01.400Z,-0.94
2024-01-20T18:13:29.825Z,-0.91
2024-01-20T18:15:59.012Z,-0.98
2024-01-20T18:18:27.917Z,-0.92
2024-01-20T18:20:56.575Z,-0.94
2024-01-20T18:23:26.370Z,-0.94
2024-01-20T18:25:54.881Z,-1.00
2024-01-20T18:28:23.655Z,-0.92
2024-01-20T18:30:52.665Z,-0.98
2024-01-20T18:33:22.765Z,-0.93
2024-01-20T18:35:51.296Z,-0.95
2024-01-20T18:38:19.702Z,-0.97
2024-01-20T18:40:49.669Z,-0.94
2024-01-20T18:43:18.089Z,-0.89
2024-01-20T18:45:46.521Z,-1.09
2024-01-20T18:48:15.462Z,-1.07
2024-01-20T18:50:44.021Z,-1.13
2024-01-20T18:53:15.260Z,-1.08
2024-01-20T18:55:43.872Z,-1.06
2024-01-20T18:58:14.490Z,-1.08
2024-01-20T19:00:43.245Z,-1.00
2024-01-20T19:03:11.744Z,-0.99
2024-01-20T19:05:40.351Z,-0.94
2024-01-20T19:08:08.867Z,-1.08
2024-01-20T19:10:40.607Z,-1.05
2024-01-20T19:13:09.320Z,-0.98
2024-01-20T19:15:39.369Z,-0.99
2024-01-20T19:18:08.628Z,-1.03
2024-01-20T19:20:41.396Z,-0.92
2024-01-20T19:23:10.078Z,-0.94
2024-01-20T19:25:38.610Z,-0.90
2024-01-20T19:28:07.565Z,-0.90
2024-01-20T19:30:36.061Z,-0.95
2024-01-20T19:33:06.655Z,-0.90
2024-01-20T19:35:35.834Z,-0.91
2024-01-20T19:38:04.805Z,-0.89
2024-01-20T19:40:33.383Z,-0.94
2024-01-20T19:43:01.971Z,-1.03
2024-01-20T19:45:30.883Z,-0.99
2024-01-20T19:47:59.310Z,-1.07
2024-01-20T19:50:29.266Z,-1.13
2024-01-20T19:52:59.615Z,-1.11
2024-01-20T19:55:28.839Z,-1.08
2024-01-20T19:57:57.758Z,-1.06
2024-01-20T20:00:26.318Z,-1.00
2024-01-20T20:03:00.254Z,-0.96
2024-01-20T20:05:32.182Z,-0.95
2024-01-20T20:08:02.422Z,-0.94
2024-01-20T20:10:30.914Z,-0.92
2024-01-20T20:13:00.454Z,-0.94
2024-01-20T20:15:28.927Z,-0.92
2024-01-20T20:17:57.827Z,-0.90
2024-01-20T20:20:26.614Z,-1.00
2024-01-20T20:22:56.660Z,-1.01
2024-01-20T20:25:58.380Z,-1.04
2024-01-20T20:28:27.204Z,-1.00
2024-01-20T20:31:01.445Z,-0.99
2024-01-20T20:33:35.772Z,-1.01
2024-01-20T20:36:05.119Z,-1.12
2024-01-20T20:38:37.222Z,-1.12
2024-01-20T20:41:06.930Z,-1.09
2024-01-20T20:43:36.173Z,-1.13
2024-01-20T20:46:05.164Z,-1.14
2024-01-20T20:48:34.143Z,-1.19
2024-01-20T20:51:02.901Z,-1.18
2024-01-20T20:53:31.814Z,-1.20
2024-01-20T20:56:01.867Z,-1.35
2024-01-20T20:58:31.055Z,-1.39
2024-01-20T21:01:00.019Z,-1.47
2024-01-20T21:03:28.599Z,-1.44
2024-01-20T21:05:57.946Z,-1.51
2024-01-20T21:08:27.218Z,-1.52
2024-01-20T21:10:56.845Z,-1.70
2024-01-20T21:13:27.403Z,-1.74
2024-01-20T21:15:58.884Z,-1.67
2024-01-20T21:18:29.077Z,-1.74
2024-01-20T21:20:57.521Z,-1.82
2024-01-20T21:23:25.928Z,-1.89
2024-01-20T21:25:55.363Z,-1.66
2024-01-20T21:28:23.827Z,-1.81
2024-01-20T21:30:55.092Z,-1.94
2024-01-20T21:33:23.993Z,-1.86
2024-01-20T21:35:52.444Z,-1.89
2024-01-20T21:38:20.866Z,-2.05
2024-01-20T21:40:50.000Z,-1.96
2024-01-20T21:43:18.521Z,-2.00
2024-01-20T21:45:48.152Z,-2.15
2024-01-20T21:48:18.210Z,-2.15
2024-01-20T21:50:46.713Z,-2.16
2024-01-20T21:53:15.794Z,-2.29
2024-01-20T21:55:44.148Z,-2.30
2024-01-20T21:58:12.951Z,-2.32
2024-01-20T22:00:43.933Z,-2.39
2024-01-20T22:03:14.997Z,-2.40
2024-01-20T22:05:45.145Z,-2.32
2024-01-20T22:08:14.242Z,-2.40
2024-01-20T22:10:42.690Z,-2.47
2024-01-20T22:13:12.732Z,-2.43
2024-01-20T22:15:43.043Z,-2.31
2024-01-20T22:18:11.965Z,-2.37
2024-01-20T22:20:40.947Z,-2.40
2024-01-20T22:23:10.830Z,-2.51
2024-01-20T22:25:39.188Z,-2.59
2024-01-20T22:28:07.901Z,-2.56
2024-01-20T22:30:36.275Z,-2.54
2024-01-20T22:33:05.160Z,-2.62
2024-01-20T22:35:33.559Z,-2.65
2024-01-20T22:38:01.909Z,-2.64
2024-01-20T22:40:32.775Z,-2.65
2024-01-20T22:43:01.154Z,-2.63
2024-01-20T22:45:29.556Z,-2.55
2024-01-20T22:47:58.014Z,-2.63
2024-01-20T22:50:26.805Z,-2.61
2024-01-20T22:52:55.273Z,-2.73
2024-01-20T22:55:23.754Z,-2.81
2024-01-20T22:57:53.631Z,-2.80
2024-01-20T23:00:27.265Z,-2.82
2024-01-20T23:02:56.453Z,-2.76
2024-01-20T23:05:25.292Z,-2.86
2024-01-20T23:07:54.881Z,-2.91
2024-01-20T23:10:23.225Z,-2.84
2024-01-20T23:12:53.346Z,-2.94
2024-01-20T23:15:21.927Z,-3.05
2024-01-20T23:17:50.370Z,-3.12
2024-01-20T23:20:18.779Z,-3.12
2024-01-20T23:22:47.402Z,-3.14
2024-01-20T23:25:15.860Z,-3.15
2024-01-20T23:27:44.301Z,-3.15
2024-01-20T23:30:14.929Z,-3.10
2024-01-20T23:32:43.961Z,-3.16
2024-01-20T23:35:12.923Z,-3.23
2024-01-20T23:37:41.770Z,-3.13
2024-01-20T23:40:12.487Z,-3.04
2024-01-20T23:42:42.053Z,-2.95
2024-01-20T23:45:13.619Z,-3.04
2024-01-20T23:47:43.482Z,-3.09
2024-01-20T23:50:12.657Z,-3.12
2024-01-20T23:52:41.306Z,-3.14
2024-01-20T23:55:10.599Z,-3.20
2024-01-20T23:57:40.537Z,-3.24
